Time;durP1;ratioP1;P1;durP2;ratioP2;P2;SDS_P1;SDS_P2;PMS_P1;PMS_P2;Temp;Humidity;BMP_temperature;BMP_pressure;BME280_temperature;BME280_humidity;BME280_pressure;Samples;Min_cycle;Max_cycle;Signal;HPM_P1;HPM_P2
2023/09/26 00:01:33;;;;;;;;;;;;;;;14.39;73.79;102489.45;106340;1260;71861;-78
2023/09/26 00:04:00;;;;;;;;;;;;;;;14.29;73.79;102487.14;106229;1261;124095;-77
2023/09/26 00:06:28;;;;;;;;;;;;;;;14.20;73.85;102485.39;106314;1260;59578;-77
2023/09/26 00:08:54;;;;;;;;;;;;;;;14.13;73.94;102489.02;106418;1261;74413;-77
2023/09/26 00:11:21;;;;;;;;;;;;;;;14.04;74.07;102487.98;106326;1260;124571;-78
2023/09/26 00:13:50;;;;;;;;;;;;;;;13.96;74.04;102491.00;106344;1259;72719;-78
2023/09/26 00:16:17;;;;;;;;;;;;;;;13.87;74.23;102489.06;106242;1261;124289;-77
2023/09/26 00:18:43;;;;;;;;;;;;;;;13.80;74.36;102489.67;106459;1260;61276;-77
2023/09/26 00:21:10;;;;;;;;;;;;;;;13.73;74.48;102486.23;106314;1259;73344;-77
2023/09/26 00:23:39;;;;;;;;;;;;;;;13.67;74.58;102485.10;105601;1260;124798;-77
2023/09/26 00:26:07;;;;;;;;;;;;;;;13.61;74.69;102487.36;105614;1263;71464;-77
2023/09/26 00:28:34;;;;;;;;;;;;;;;13.55;74.91;102482.88;105363;1261;124941;-78
2023/09/26 00:31:04;;;;;;;;;;;;;;;13.51;75.01;102483.05;106254;1259;61498;-78
2023/09/26 00:33:32;;;;;;;;;;;;;;;13.47;75.11;102479.00;106251;1259;125082;-78
2023/09/26 00:36:06;;;;;;;;;;;;;;;13.42;75.32;102475.98;106347;1261;64685;-78
2023/09/26 00:38:33;;;;;;;;;;;;;;;13.39;75.45;102478.52;106299;1261;71065;-77
2023/09/26 00:40:59;;;;;;;;;;;;;;;13.37;75.53;102476.15;106332;1261;125284;-77
2023/09/26 00:43:26;;;;;;;;;;;;;;;13.34;75.65;102473.02;106473;1263;61269;-77
2023/09/26 00:45:56;;;;;;;;;;;;;;;13.32;75.77;102474.34;106326;1259;124933;-77
2023/09/26 00:48:26;;;;;;;;;;;;;;;13.30;75.78;102474.42;106375;1260;66201;-77
2023/09/26 00:50:53;;;;;;;;;;;;;;;13.28;75.86;102469.38;106221;1261;71693;-77
2023/09/26 00:53:20;;;;;;;;;;;;;;;13.27;75.88;102469.52;106253;1260;126639;-78
2023/09/26 00:55:48;;;;;;;;;;;;;;;13.26;75.90;102468.24;106435;1260;61202;-77
2023/09/26 00:58:16;;;;;;;;;;;;;;;13.25;75.91;102468.35;106326;1258;125274;-77
2023/09/26 01:00:43;;;;;;;;;;;;;;;13.21;76.07;102464.36;106421;1259;66529;-77
2023/09/26 01:03:09;;;;;;;;;;;;;;;13.22;76.16;102466.32;106299;1263;73033;-78
2023/09/26 01:05:36;;;;;;;;;;;;;;;13.22;76.14;102459.95;106149;1263;125258;-77
2023/09/26 01:08:03;;;;;;;;;;;;;;;13.21;76.22;102462.22;106356;1260;61261;-78
2023/09/26 01:10:30;;;;;;;;;;;;;;;13.20;76.19;102462.00;106312;1260;124886;-78
2023/09/26 01:12:57;;;;;;;;;;;;;;;13.18;76.25;102462.10;106217;1261;64222;-78
2023/09/26 01:15:30;;;;;;;;;;;;;;;13.16;76.23;102460.59;106324;1259;126093;-76
2023/09/26 01:17:57;;;;;;;;;;;;;;;13.15;76.35;102464.95;105520;1259;61388;-78
2023/09/26 01:20:24;;;;;;;;;;;;;;;13.13;76.32;102466.48;106149;1260;61289;-77
2023/09/26 01:22:51;;;;;;;;;;;;;;;13.12;76.40;102469.96;105550;1263;124991;-77
2023/09/26 01:25:18;;;;;;;;;;;;;;;13.11;76.43;102468.32;105640;1260;66367;-77
2023/09/26 01:27:45;;;;;;;;;;;;;;;13.10;76.49;102470.23;105497;1265;125093;-77
2023/09/26 01:30:12;;;;;;;;;;;;;;;13.09;76.62;102470.68;105640;1260;60653;-77
2023/09/26 01:32:38;;;;;;;;;;;;;;;13.06;76.62;102472.14;105651;1263;61397;-77
2023/09/26 01:35:05;;;;;;;;;;;;;;;13.04;76.67;102475.97;105604;1260;125083;-77
2023/09/26 01:37:33;;;;;;;;;;;;;;;13.06;76.83;102474.83;105751;1261;66148;-76
2023/09/26 01:39:59;;;;;;;;;;;;;;;13.08;76.94;102471.38;105511;1263;130247;-77
2023/09/26 01:42:26;;;;;;;;;;;;;;;13.14;77.04;102472.84;105533;1261;61376;-78
2023/09/26 01:44:52;;;;;;;;;;;;;;;13.19;77.11;102466.90;106423;1263;61293;-78
2023/09/26 01:47:21;;;;;;;;;;;;;;;13.28;77.16;102472.39;106295;1261;124826;-78
2023/09/26 01:49:48;;;;;;;;;;;;;;;13.34;77.17;102470.55;107715;1263;66301;-78
2023/09/26 01:52:14;;;;;;;;;;;;;;;13.43;77.24;102467.55;106328;1259;124777;-78
2023/09/26 01:54:41;;;;;;;;;;;;;;;13.52;77.21;102465.48;106494;1258;59280;-78
2023/09/26 01:57:07;;;;;;;;;;;;;;;13.61;77.17;102463.86;106379;1259;59636;-79
2023/09/26 01:59:34;;;;;;;;;;;;;;;13.69;77.07;102465.79;106248;1258;124620;-78
2023/09/26 02:02:03;;;;;;;;;;;;;;;13.79;77.10;102464.05;106346;1263;61359;-78
2023/09/26 02:04:30;;;;;;;;;;;;;;;13.86;77.01;102467.33;106292;1258;124884;-78
2023/09/26 02:06:56;;;;;;;;;;;;;;;13.93;77.02;102461.45;106378;1259;61187;-78
2023/09/26 02:09:24;;;;;;;;;;;;;;;14.00;76.80;102461.85;106139;1259;125002;-78
2023/09/26 02:11:50;;;;;;;;;;;;;;;14.05;76.88;102457.63;106368;1263;73205;-77
2023/09/26 02:14:17;;;;;;;;;;;;;;;14.10;76.84;102460.48;106366;1263;61267;-78
2023/09/26 02:16:43;;;;;;;;;;;;;;;14.15;76.84;102460.14;106273;1263;125079;-77
2023/09/26 02:19:10;;;;;;;;;;;;;;;14.20;76.64;102457.50;106416;1258;59715;-77
2023/09/26 02:21:37;;;;;;;;;;;;;;;14.23;76.66;102461.66;106321;1262;125057;-78
2023/09/26 02:24:03;;;;;;;;;;;;;;;14.29;76.68;102461.87;106371;1265;73478;-77
2023/09/26 02:26:30;;;;;;;;;;;;;;;14.35;76.74;102463.34;106398;1259;66056;-77
2023/09/26 02:28:56;;;;;;;;;;;;;;;14.40;76.73;102456.84;106295;1259;125116;-76
2023/09/26 02:31:23;;;;;;;;;;;;;;;14.46;76.61;102455.45;106460;1260;61304;-77
2023/09/26 02:33:50;;;;;;;;;;;;;;;14.49;76.45;102450.96;106255;1260;125295;-78
2023/09/26 02:36:17;;;;;;;;;;;;;;;14.49;76.32;102448.84;106230;1259;73902;-78
2023/09/26 02:38:44;;;;;;;;;;;;;;;14.51;76.33;102448.05;106340;1259;66328;-77
2023/09/26 02:41:11;;;;;;;;;;;;;;;14.54;76.36;102446.73;106313;1259;124782;-77
2023/09/26 02:43:38;;;;;;;;;;;;;;;14.57;76.35;102444.91;106383;1258;61375;-77
2023/09/26 02:46:04;;;;;;;;;;;;;;;14.59;76.29;102444.64;106312;1260;123934;-77
2023/09/26 02:48:31;;;;;;;;;;;;;;;14.62;76.35;102444.04;106256;1259;74371;-79
2023/09/26 02:51:04;;;;;;;;;;;;;;;14.65;76.34;102444.31;106304;1258;66101;-78
2023/09/26 02:53:30;;;;;;;;;;;;;;;14.66;76.42;102443.12;106378;1263;124934;-78
2023/09/26 02:55:57;;;;;;;;;;;;;;;14.67;76.38;102443.33;106346;1265;62312;-80
2023/09/26 02:58:24;;;;;;;;;;;;;;;14.68;76.35;102443.91;106285;1259;130483;-79
2023/09/26 03:00:50;;;;;;;;;;;;;;;14.70;76.47;102440.27;106326;1258;75000;-80
2023/09/26 03:03:17;;;;;;;;;;;;;;;14.72;76.35;102437.52;106345;1258;125031;-81
2023/09/26 03:05:50;;;;;;;;;;;;;;;14.73;76.31;102436.83;106315;1258;72696;-79
2023/09/26 03:08:17;;;;;;;;;;;;;;;14.70;76.26;102439.38;106395;1263;61234;-81
2023/09/26 03:10:44;;;;;;;;;;;;;;;14.71;76.29;102442.42;106242;1259;126033;-81
2023/09/26 03:13:10;;;;;;;;;;;;;;;14.74;76.44;102446.41;106293;1260;73399;-81
2023/09/26 03:15:37;;;;;;;;;;;;;;;14.77;76.38;102446.35;106231;1259;125132;-81
2023/09/26 03:18:03;;;;;;;;;;;;;;;14.78;76.25;102442.13;106326;1263;73194;-81
2023/09/26 03:20:30;;;;;;;;;;;;;;;14.77;76.26;102441.55;106450;1260;61202;-81
2023/09/26 03:22:57;;;;;;;;;;;;;;;14.79;76.38;102441.46;106319;1263;125510;-81
2023/09/26 03:25:23;;;;;;;;;;;;;;;14.81;76.36;102442.39;106388;1259;73389;-81
2023/09/26 03:27:50;;;;;;;;;;;;;;;14.81;76.40;102441.69;106161;1259;125823;-82
2023/09/26 03:30:16;;;;;;;;;;;;;;;14.81;76.49;102440.83;106090;1261;71364;-82
2023/09/26 03:32:43;;;;;;;;;;;;;;;14.81;76.36;102437.11;106145;1260;61524;-81
2023/09/26 03:35:09;;;;;;;;;;;;;;;14.80;76.40;102434.42;106280;1264;124740;-81
2023/09/26 03:37:36;;;;;;;;;;;;;;;14.82;76.46;102431.30;106271;1259;75123;-82
2023/09/26 03:40:03;;;;;;;;;;;;;;;14.83;76.40;102427.27;106299;1259;125177;-82
2023/09/26 03:42:30;;;;;;;;;;;;;;;14.83;76.31;102422.34;106365;1261;72955;-81
2023/09/26 03:44:56;;;;;;;;;;;;;;;14.84;76.32;102422.73;106304;1260;61259;-81
2023/09/26 03:47:24;;;;;;;;;;;;;;;14.84;76.19;102422.91;106243;1259;126422;-81
2023/09/26 03:49:51;;;;;;;;;;;;;;;14.85;76.29;102421.70;106482;1261;74739;-84
2023/09/26 03:52:21;;;;;;;;;;;;;;;14.87;76.21;102420.72;106123;1260;125119;-84
2023/09/26 03:54:48;;;;;;;;;;;;;;;14.86;75.99;102419.98;106294;1259;71973;-83
2023/09/26 03:57:14;;;;;;;;;;;;;;;14.88;76.16;102418.07;106242;1259;125665;-83
2023/09/26 03:59:40;;;;;;;;;;;;;;;14.89;76.14;102415.65;106266;1263;61199;-83
2023/09/26 04:02:07;;;;;;;;;;;;;;;14.88;76.19;102411.73;106367;1261;73250;-82
2023/09/26 04:04:34;;;;;;;;;;;;;;;14.91;76.15;102412.36;106221;1261;124249;-82
2023/09/26 04:07:03;;;;;;;;;;;;;;;14.91;76.21;102408.30;106270;1264;72884;-83
2023/09/26 04:09:30;;;;;;;;;;;;;;;14.91;76.23;102411.48;106306;1260;124344;-85
2023/09/26 04:11:56;;;;;;;;;;;;;;;14.92;76.22;102408.33;106127;1259;61696;-83
2023/09/26 04:14:23;;;;;;;;;;;;;;;14.91;76.11;102410.75;106280;1264;75278;-83
2023/09/26 04:16:50;;;;;;;;;;;;;;;14.89;76.16;102409.45;106263;1264;124440;-83
2023/09/26 04:19:17;;;;;;;;;;;;;;;14.90;76.17;102410.36;106350;1261;61189;-85
2023/09/26 04:21:44;;;;;;;;;;;;;;;14.90;76.26;102409.66;106171;1259;124557;-82
2023/09/26 04:24:10;;;;;;;;;;;;;;;14.90;76.26;102409.53;106285;1261;61389;-83
2023/09/26 04:26:37;;;;;;;;;;;;;;;14.89;76.31;102405.94;106233;1264;73404;-80
2023/09/26 04:29:05;;;;;;;;;;;;;;;14.89;76.35;102403.63;106207;1264;124479;-80
2023/09/26 04:31:34;;;;;;;;;;;;;;;14.89;76.42;102405.05;106159;1262;72514;-83
2023/09/26 04:34:01;;;;;;;;;;;;;;;14.90;76.54;102402.08;106114;1259;124201;-87
2023/09/26 04:36:28;;;;;;;;;;;;;;;14.90;76.55;102401.55;106171;1262;59696;-88
2023/09/26 04:38:55;;;;;;;;;;;;;;;14.90;76.69;102401.57;106196;1265;72636;-84
2023/09/26 04:41:22;;;;;;;;;;;;;;;14.90;76.76;102398.73;105941;1261;124214;-82
2023/09/26 04:43:48;;;;;;;;;;;;;;;14.91;76.74;102399.27;106196;1261;73098;-85
2023/09/26 04:46:15;;;;;;;;;;;;;;;14.90;76.89;102403.14;106085;1264;124296;-87
2023/09/26 04:48:42;;;;;;;;;;;;;;;14.90;76.97;102399.40;106474;1259;61241;-88
2023/09/26 04:51:09;;;;;;;;;;;;;;;14.89;76.96;102393.91;106221;1260;75369;-86
2023/09/26 04:53:36;;;;;;;;;;;;;;;14.88;76.88;102391.58;106238;1263;124902;-86
2023/09/26 04:56:02;;;;;;;;;;;;;;;14.90;76.96;102390.92;106381;1262;72742;-87
2023/09/26 04:58:30;;;;;;;;;;;;;;;14.92;77.06;102394.20;106363;1258;124799;-87
2023/09/26 05:00:57;;;;;;;;;;;;;;;14.96;77.06;102394.16;106366;1259;61262;-86
2023/09/26 05:03:23;;;;;;;;;;;;;;;15.00;76.98;102391.79;106286;1262;126596;-92
2023/09/26 05:05:50;;;;;;;;;;;;;;;15.03;77.05;102390.32;106363;1264;66318;-88
2023/09/26 05:08:17;;;;;;;;;;;;;;;15.07;76.96;102390.41;106283;1265;72822;-85
2023/09/26 05:10:43;;;;;;;;;;;;;;;15.09;76.88;102391.74;106257;1258;125276;-84
2023/09/26 05:13:10;;;;;;;;;;;;;;;15.10;76.81;102389.31;106254;1259;61262;-92
2023/09/26 05:15:38;;;;;;;;;;;;;;;15.14;76.92;102388.90;106076;1260;125238;-87
2023/09/26 05:18:05;;;;;;;;;;;;;;;15.20;76.85;102389.10;106235;1261;65721;-88
2023/09/26 05:20:32;;;;;;;;;;;;;;;15.25;76.91;102390.30;106261;1259;71358;-88
2023/09/26 05:23:00;;;;;;;;;;;;;;;15.30;77.03;102388.20;106196;1261;125005;-89
2023/09/26 05:25:27;;;;;;;;;;;;;;;15.37;76.90;102385.37;106175;1259;60417;-88
2023/09/26 05:27:54;;;;;;;;;;;;;;;15.40;76.68;102392.02;106014;1260;125185;-88
2023/09/26 05:30:21;;;;;;;;;;;;;;;15.42;76.70;102397.55;106201;1261;64795;-88
2023/09/26 05:32:47;;;;;;;;;;;;;;;15.46;76.77;102397.16;106183;1264;71394;-88
2023/09/26 05:35:14;;;;;;;;;;;;;;;15.53;76.81;102397.20;106239;1259;124998;-88
2023/09/26 05:37:40;;;;;;;;;;;;;;;15.60;76.74;102398.81;106404;1259;60135;-88
2023/09/26 05:40:07;;;;;;;;;;;;;;;15.65;76.76;102402.52;106156;1260;124807;-88
2023/09/26 05:42:38;;;;;;;;;;;;;;;15.72;76.79;102402.23;106469;1262;66064;-88
2023/09/26 05:45:04;;;;;;;;;;;;;;;15.78;76.67;102396.76;106174;1259;71436;-81
2023/09/26 05:47:31;;;;;;;;;;;;;;;15.84;76.65;102403.13;106274;1258;124688;-81
2023/09/26 05:49:58;;;;;;;;;;;;;;;15.89;76.58;102397.44;106434;1259;61253;-81
2023/09/26 05:52:24;;;;;;;;;;;;;;;15.92;76.50;102397.54;106176;1260;124855;-81
2023/09/26 05:54:51;;;;;;;;;;;;;;;15.99;76.46;102393.98;106177;1264;66715;-88
2023/09/26 05:57:18;;;;;;;;;;;;;;;16.03;76.33;102392.89;106174;1259;125994;-88
2023/09/26 05:59:44;;;;;;;;;;;;;;;16.10;76.21;102395.39;106424;1259;61314;-88
2023/09/26 06:02:12;;;;;;;;;;;;;;;16.20;76.16;102395.30;106546;1258;61212;-88
2023/09/26 06:04:42;;;;;;;;;;;;;;;16.26;75.96;102394.95;106552;1258;124962;-89
2023/09/26 06:07:09;;;;;;;;;;;;;;;16.32;75.68;102395.30;106436;1265;65095;-89
2023/09/26 06:09:36;;;;;;;;;;;;;;;16.39;75.42;102397.61;106496;1264;125231;-88
2023/09/26 06:12:03;;;;;;;;;;;;;;;16.46;75.22;102393.71;106548;1259;61189;-88
2023/09/26 06:14:31;;;;;;;;;;;;;;;16.46;74.84;102396.55;106405;1259;61270;-88
2023/09/26 06:16:57;;;;;;;;;;;;;;;16.49;74.75;102394.86;106165;1263;125476;-87
2023/09/26 06:19:24;;;;;;;;;;;;;;;16.57;74.67;102394.36;106348;1259;66260;-90
2023/09/26 06:21:50;;;;;;;;;;;;;;;16.63;74.51;102397.35;106174;1259;123442;-89
2023/09/26 06:24:17;;;;;;;;;;;;;;;16.69;74.33;102397.34;106251;1259;59458;-89
2023/09/26 06:26:44;;;;;;;;;;;;;;;16.73;74.12;102397.61;106224;1259;61129;-82
2023/09/26 06:29:10;;;;;;;;;;;;;;;16.77;74.05;102402.52;106199;1259;124390;-87
2023/09/26 06:31:40;;;;;;;;;;;;;;;16.79;73.96;102397.96;106370;1259;66618;-89
2023/09/26 06:34:06;;;;;;;;;;;;;;;16.81;73.76;102396.58;106092;1262;124156;-89
2023/09/26 06:36:33;;;;;;;;;;;;;;;16.82;73.70;102391.51;106598;1263;61951;-87
2023/09/26 06:38:59;;;;;;;;;;;;;;;16.85;73.57;102393.00;106203;1259;61256;-81
2023/09/26 06:41:26;;;;;;;;;;;;;;;16.90;73.48;102397.73;106162;1259;124129;-80
2023/09/26 06:43:53;;;;;;;;;;;;;;;16.93;73.42;102394.08;106330;1259;61372;-81
2023/09/26 06:46:19;;;;;;;;;;;;;;;16.97;73.38;102396.30;106165;1259;124448;-82
2023/09/26 06:48:46;;;;;;;;;;;;;;;17.03;73.41;102394.70;106188;1259;59605;-81
2023/09/26 06:51:12;;;;;;;;;;;;;;;17.08;73.22;102393.05;106302;1263;61341;-81
2023/09/26 06:53:39;;;;;;;;;;;;;;;17.13;72.96;102392.27;106268;1263;75706;-81
2023/09/26 06:56:06;;;;;;;;;;;;;;;17.18;72.83;102392.39;106152;1261;66237;-80
2023/09/26 06:58:33;;;;;;;;;;;;;;;17.21;72.68;102396.91;105998;1262;124244;-81
2023/09/26 07:01:00;;;;;;;;;;;;;;;17.25;72.55;102395.40;106132;1260;59358;-81
2023/09/26 07:03:27;;;;;;;;;;;;;;;17.33;72.50;102392.73;106114;1259;124426;-80
2023/09/26 07:05:54;;;;;;;;;;;;;;;17.40;72.38;102392.39;106077;1260;74379;-80
2023/09/26 07:08:20;;;;;;;;;;;;;;;17.50;72.16;102391.52;106169;1265;66316;-81
2023/09/26 07:10:47;;;;;;;;;;;;;;;17.59;72.02;102394.39;106165;1261;124243;-82
2023/09/26 07:13:14;;;;;;;;;;;;;;;17.67;71.71;102394.57;106051;1259;61283;-80
2023/09/26 07:15:41;;;;;;;;;;;;;;;17.73;71.71;102391.52;106039;1259;124579;-81
2023/09/26 07:18:09;;;;;;;;;;;;;;;17.79;71.50;102395.00;106176;1264;74452;-81
2023/09/26 07:20:38;;;;;;;;;;;;;;;17.84;71.54;102398.35;107413;1262;66412;-81
2023/09/26 07:23:05;;;;;;;;;;;;;;;17.91;71.41;102392.45;106101;1259;124123;-81
2023/09/26 07:25:32;;;;;;;;;;;;;;;17.99;71.24;102394.40;106369;1259;61340;-81
2023/09/26 07:27:59;;;;;;;;;;;;;;;18.10;71.25;102395.16;106266;1259;125907;-81
2023/09/26 07:30:25;;;;;;;;;;;;;;;18.22;71.08;102398.05;106249;1263;74731;-81
2023/09/26 07:32:52;;;;;;;;;;;;;;;18.33;70.94;102396.15;106090;1258;67155;-81
2023/09/26 07:35:18;;;;;;;;;;;;;;;18.47;70.86;102393.77;106321;1259;125799;-81
2023/09/26 07:37:45;;;;;;;;;;;;;;;18.62;70.66;102391.16;106289;1259;61190;-81
2023/09/26 07:40:11;;;;;;;;;;;;;;;18.70;70.33;102392.55;106129;1259;124754;-82
2023/09/26 07:42:39;;;;;;;;;;;;;;;18.78;70.18;102389.14;106280;1261;74782;-82
2023/09/26 07:45:06;;;;;;;;;;;;;;;18.86;69.90;102391.08;106250;1262;66087;-82
2023/09/26 07:47:33;;;;;;;;;;;;;;;18.96;69.82;102387.52;106128;1264;124688;-83
2023/09/26 07:50:01;;;;;;;;;;;;;;;19.08;69.71;102385.39;106278;1261;61362;-81
2023/09/26 07:52:28;;;;;;;;;;;;;;;19.19;69.63;102384.67;106121;1259;124818;-81
2023/09/26 07:54:55;;;;;;;;;;;;;;;19.27;69.42;102381.78;106150;1260;73147;-82
2023/09/26 07:57:22;;;;;;;;;;;;;;;19.43;69.39;102378.80;105930;1260;125030;-82
2023/09/26 07:59:49;;;;;;;;;;;;;;;19.59;69.24;102379.73;106111;1261;72856;-82
2023/09/26 08:02:15;;;;;;;;;;;;;;;19.75;69.09;102371.59;106231;1259;61384;-82
2023/09/26 08:04:42;;;;;;;;;;;;;;;19.89;68.75;102370.73;106008;1259;124536;-81
2023/09/26 08:07:08;;;;;;;;;;;;;;;20.00;68.44;102369.61;106154;1259;74718;-81
2023/09/26 08:09:35;;;;;;;;;;;;;;;20.13;68.26;102370.29;106259;1264;124538;-81
2023/09/26 08:12:02;;;;;;;;;;;;;;;20.27;68.04;102367.05;106241;1260;72897;-81
2023/09/26 08:14:29;;;;;;;;;;;;;;;20.45;67.99;102369.02;106251;1264;61299;-81
2023/09/26 08:16:55;;;;;;;;;;;;;;;20.61;67.60;102366.34;106187;1261;125070;-81
2023/09/26 08:19:22;;;;;;;;;;;;;;;20.70;67.32;102366.78;106197;1261;74715;-81
2023/09/26 08:21:48;;;;;;;;;;;;;;;20.80;67.03;102371.87;106180;1263;124735;-81
2023/09/26 08:24:15;;;;;;;;;;;;;;;20.87;66.64;102370.52;106179;1259;72720;-81
2023/09/26 08:26:42;;;;;;;;;;;;;;;20.91;66.24;102371.42;106261;1259;61386;-81
2023/09/26 08:29:08;;;;;;;;;;;;;;;20.97;66.22;102372.20;106162;1259;124305;-81
2023/09/26 08:31:35;;;;;;;;;;;;;;;21.09;66.19;102369.41;106240;1260;74486;-81
2023/09/26 08:34:02;;;;;;;;;;;;;;;21.23;65.94;102369.52;106236;1263;124293;-82
2023/09/26 08:36:30;;;;;;;;;;;;;;;21.30;65.64;102368.67;106306;1262;72213;-81
2023/09/26 08:38:56;;;;;;;;;;;;;;;21.36;65.47;102368.00;106297;1259;61328;-81
2023/09/26 08:41:26;;;;;;;;;;;;;;;21.36;65.24;102366.02;106230;1265;124131;-81
2023/09/26 08:43:53;;;;;;;;;;;;;;;21.35;64.96;102364.77;106386;1264;74653;-81
2023/09/26 08:46:20;;;;;;;;;;;;;;;21.41;65.16;102361.95;105934;1259;124065;-83
2023/09/26 08:48:46;;;;;;;;;;;;;;;21.46;65.08;102360.05;106239;1262;71131;-83
2023/09/26 08:51:13;;;;;;;;;;;;;;;21.53;65.00;102359.73;106238;1261;61996;-83
2023/09/26 08:53:40;;;;;;;;;;;;;;;21.61;64.99;102357.45;106483;1259;61308;-81
2023/09/26 08:56:06;;;;;;;;;;;;;;;21.71;65.03;102353.91;106477;1259;74498;-81
2023/09/26 08:58:33;;;;;;;;;;;;;;;21.81;64.71;102354.14;106233;1259;125148;-81
2023/09/26 09:01:00;;;;;;;;;;;;;;;21.88;64.60;102353.09;106143;1260;71404;-81
2023/09/26 09:03:26;;;;;;;;;;;;;;;21.91;64.23;102352.21;106154;1265;124229;-81
2023/09/26 09:05:53;;;;;;;;;;;;;;;21.91;64.05;102355.59;106326;1261;61265;-82
2023/09/26 09:08:21;;;;;;;;;;;;;;;21.97;64.30;102356.15;106407;1259;73204;-81
2023/09/26 09:10:49;;;;;;;;;;;;;;;22.10;64.14;102355.67;106139;1260;124248;-81
2023/09/26 09:13:37;;;;;;;;;;;;;;;22.21;64.09;102356.59;106178;1260;72774;-82
2023/09/26 09:16:10;;;;;;;;;;;;;;;22.36;63.97;102353.96;106192;1259;124895;-81
2023/09/26 09:18:37;;;;;;;;;;;;;;;22.43;63.51;102352.52;106099;1259;193780;-81
2023/09/26 09:21:18;;;;;;;;;;;;;;;22.46;63.40;102348.60;106312;1262;74512;-82
2023/09/26 09:23:46;;;;;;;;;;;;;;;22.57;63.44;102345.76;106326;1262;65110;-83
2023/09/26 09:26:13;;;;;;;;;;;;;;;22.62;63.03;102347.73;106172;1260;72852;-81
2023/09/26 09:28:39;;;;;;;;;;;;;;;22.65;62.88;102343.08;106331;1259;124688;-81
2023/09/26 09:31:06;;;;;;;;;;;;;;;22.72;62.91;102340.56;106259;1260;61158;-81
2023/09/26 09:33:32;;;;;;;;;;;;;;;22.81;62.79;102343.25;106232;1264;124287;-81
2023/09/26 09:35:59;;;;;;;;;;;;;;;22.87;62.75;102342.17;106136;1259;65300;-81
2023/09/26 09:38:26;;;;;;;;;;;;;;;22.95;62.48;102341.98;106421;1264;72807;-81
2023/09/26 09:40:53;;;;;;;;;;;;;;;22.99;62.37;102340.90;106353;1259;125108;-81
2023/09/26 09:43:19;;;;;;;;;;;;;;;23.04;62.22;102338.23;106424;1261;60186;-82
2023/09/26 09:45:46;;;;;;;;;;;;;;;23.09;62.00;102333.94;106189;1259;124418;-82
2023/09/26 09:48:12;;;;;;;;;;;;;;;23.13;61.95;102331.61;106305;1259;65035;-81
2023/09/26 09:50:39;;;;;;;;;;;;;;;23.15;61.72;102333.77;106232;1259;72820;-81
2023/09/26 09:53:06;;;;;;;;;;;;;;;23.17;61.51;102325.15;106166;1261;124258;-81
2023/09/26 09:55:39;;;;;;;;;;;;;;;23.20;61.52;102326.03;106288;1259;61298;-82
2023/09/26 09:58:08;;;;;;;;;;;;;;;23.15;61.37;102325.15;106216;1261;125226;-82
2023/09/26 10:00:38;;;;;;;;;;;;;;;23.09;61.36;102319.98;106227;1259;65132;-82
2023/09/26 10:03:05;;;;;;;;;;;;;;;23.08;61.33;102320.34;106396;1259;71422;-86
2023/09/26 10:05:34;;;;;;;;;;;;;;;23.13;61.39;102320.70;106294;1259;124606;-82
2023/09/26 10:08:01;;;;;;;;;;;;;;;23.20;61.38;102319.23;106249;1261;61373;-88
2023/09/26 10:10:28;;;;;;;;;;;;;;;23.19;61.08;102321.57;106090;1265;124127;-89
2023/09/26 10:12:55;;;;;;;;;;;;;;;23.15;61.14;102323.55;106350;1259;64962;-83
2023/09/26 10:15:22;;;;;;;;;;;;;;;23.19;61.21;102324.25;106578;1262;124395;-87
2023/09/26 10:17:48;;;;;;;;;;;;;;;23.27;61.27;102322.80;106392;1260;61344;-81
2023/09/26 10:20:15;;;;;;;;;;;;;;;23.33;61.15;102321.70;106299;1259;61427;-89
2023/09/26 10:22:43;;;;;;;;;;;;;;;23.33;61.12;102320.45;106239;1265;123348;-87
2023/09/26 10:25:18;;;;;;;;;;;;;;;23.32;61.02;102321.71;106195;1259;66306;-88
2023/09/26 10:27:47;;;;;;;;;;;;;;;23.36;61.21;102315.08;106175;1259;123399;-89
2023/09/26 10:30:14;;;;;;;;;;;;;;;23.43;61.19;102310.56;106265;1265;61221;-88
2023/09/26 10:32:41;;;;;;;;;;;;;;;23.54;61.28;102315.73;106283;1259;61348;-88
2023/09/26 10:35:15;;;;;;;;;;;;;;;23.58;60.92;102313.73;106173;1260;124166;-87
2023/09/26 10:37:44;;;;;;;;;;;;;;;23.54;60.86;102309.63;106182;1265;65117;-88
2023/09/26 10:40:12;;;;;;;;;;;;;;;23.56;60.92;102307.30;106065;1263;124257;-91
2023/09/26 10:42:44;;;;;;;;;;;;;;;23.56;60.89;102308.19;106226;1265;61382;-88
2023/09/26 10:45:12;;;;;;;;;;;;;;;23.58;60.82;102304.23;106158;1261;61256;-89
2023/09/26 10:47:40;;;;;;;;;;;;;;;23.63;60.59;102301.35;105920;1262;122885;-89
2023/09/26 10:50:08;;;;;;;;;;;;;;;23.67;60.80;102296.67;106110;1267;67615;-88
2023/09/26 10:52:35;;;;;;;;;;;;;;;23.69;61.04;102293.25;105915;1270;124201;-88
2023/09/26 10:55:03;;;;;;;;;;;;;;;23.72;61.02;102287.85;106129;1261;61314;-90
2023/09/26 10:57:29;;;;;;;;;;;;;;;23.76;61.28;102289.09;105935;1259;124781;-90
2023/09/26 10:59:56;;;;;;;;;;;;;;;23.85;61.24;102283.52;106174;1261;74547;-89
2023/09/26 11:02:23;;;;;;;;;;;;;;;23.95;61.19;102289.56;106238;1260;64710;-89
2023/09/26 11:04:50;;;;;;;;;;;;;;;24.01;61.10;102288.27;106109;1266;124275;-89
2023/09/26 11:07:16;;;;;;;;;;;;;;;24.09;61.06;102289.64;106122;1259;61374;-88
2023/09/26 11:09:44;;;;;;;;;;;;;;;24.20;61.03;102284.02;106030;1266;145537;-87
2023/09/26 11:12:11;;;;;;;;;;;;;;;24.30;60.81;102282.14;106130;1259;73449;-88
2023/09/26 11:14:38;;;;;;;;;;;;;;;24.31;60.51;102281.41;106272;1259;66195;-87
2023/09/26 11:17:04;;;;;;;;;;;;;;;24.33;60.41;102283.37;106283;1261;124401;-88
2023/09/26 11:19:32;;;;;;;;;;;;;;;24.36;60.13;102276.71;106217;1262;61403;-88
2023/09/26 11:21:58;;;;;;;;;;;;;;;24.42;60.17;102277.20;106155;1259;124558;-89
2023/09/26 11:24:31;;;;;;;;;;;;;;;24.51;60.04;102279.11;106530;1259;74735;-87
2023/09/26 11:26:58;;;;;;;;;;;;;;;24.55;59.94;102274.07;106900;1260;64895;-91
2023/09/26 11:29:25;;;;;;;;;;;;;;;24.61;59.90;102271.31;106308;1259;124701;-88
2023/09/26 11:31:52;;;;;;;;;;;;;;;24.67;59.63;102270.91;106335;1265;61244;-88
2023/09/26 11:34:19;;;;;;;;;;;;;;;24.69;59.87;102267.83;106341;1259;124600;-88
2023/09/26 11:36:49;;;;;;;;;;;;;;;24.74;59.71;102264.91;106437;1259;72371;-89
2023/09/26 11:39:19;;;;;;;;;;;;;;;24.81;59.76;102264.84;106387;1263;65508;-90
2023/09/26 11:41:47;;;;;;;;;;;;;;;24.89;59.79;102262.43;106361;1259;72730;-88
2023/09/26 11:44:14;;;;;;;;;;;;;;;24.90;59.78;102262.59;106382;1263;61317;-88
2023/09/26 11:46:42;;;;;;;;;;;;;;;24.92;59.58;102259.15;106215;1267;125041;-87
2023/09/26 11:49:08;;;;;;;;;;;;;;;24.88;59.40;102250.21;106292;1259;73409;-88
2023/09/26 11:51:35;;;;;;;;;;;;;;;24.85;59.45;102248.29;106295;1259;124318;-88
2023/09/26 11:54:02;;;;;;;;;;;;;;;24.78;59.15;102247.10;106550;1261;72697;-88
2023/09/26 11:56:28;;;;;;;;;;;;;;;24.75;59.40;102245.34;106373;1265;61997;-88
2023/09/26 11:58:55;;;;;;;;;;;;;;;24.75;59.37;102238.70;106277;1264;124180;-89
2023/09/26 12:01:22;;;;;;;;;;;;;;;24.73;59.56;102236.73;106209;1259;73450;-88
2023/09/26 12:03:48;;;;;;;;;;;;;;;24.68;59.54;102235.53;106297;1265;124279;-88
2023/09/26 12:06:15;;;;;;;;;;;;;;;24.61;59.45;102234.52;106425;1261;71136;-88
2023/09/26 12:08:43;;;;;;;;;;;;;;;24.62;59.77;102232.34;106415;1259;61289;-88
2023/09/26 12:11:11;;;;;;;;;;;;;;;24.54;59.68;102232.25;106245;1260;124249;-89
2023/09/26 12:13:38;;;;;;;;;;;;;;;24.46;59.84;102231.23;106414;1260;72410;-88
2023/09/26 12:16:04;;;;;;;;;;;;;;;24.37;59.76;102230.05;106302;1265;124514;-89
2023/09/26 12:18:31;;;;;;;;;;;;;;;24.27;59.84;102228.52;106530;1263;72421;-90
2023/09/26 12:20:58;;;;;;;;;;;;;;;24.25;59.95;102224.77;106569;1259;61680;-90
2023/09/26 12:23:27;;;;;;;;;;;;;;;24.22;60.06;102224.80;106417;1259;124380;-88